createdAt,value
2018-04-16T00:01:00.307Z,15.60
2018-04-16T00:03:27.759Z,15.50
2018-04-16T00:05:55.361Z,15.50
2018-04-16T00:08:22.764Z,15.40
2018-04-16T00:10:50.226Z,15.40
2018-04-16T00:13:17.827Z,15.40
2018-04-16T00:15:45.270Z,15.40
2018-04-16T00:18:12.718Z,15.40
2018-04-16T00:20:40.168Z,15.40
2018-04-16T00:23:07.616Z,15.30
2018-04-16T00:25:35.068Z,15.30
2018-04-16T00:28:02.507Z,15.30
2018-04-16T00:30:29.965Z,15.20
2018-04-16T00:33:03.296Z,15.10
2018-04-16T00:35:36.292Z,15.10
2018-04-16T00:38:09.308Z,15.00
2018-04-16T00:40:42.330Z,14.90
2018-04-16T00:43:15.499Z,14.90
2018-04-16T00:45:48.684Z,14.80
2018-04-16T00:48:21.835Z,14.70
2018-04-16T00:50:55.004Z,14.70
2018-04-16T00:53:28.154Z,14.70
2018-04-16T00:56:01.358Z,14.70
2018-04-16T00:58:34.352Z,14.60
2018-04-16T01:01:07.727Z,14.70
2018-04-16T01:03:40.700Z,14.60
2018-04-16T01:06:25.958Z,14.60
2018-04-16T01:08:59.197Z,14.50
2018-04-16T01:11:32.416Z,14.50
2018-04-16T01:14:08.039Z,14.40
2018-04-16T01:16:41.077Z,14.40
2018-04-16T01:19:14.231Z,14.40
2018-04-16T01:21:47.361Z,14.30
2018-04-16T01:24:20.517Z,14.30
2018-04-16T01:26:54.760Z,14.20
2018-04-16T01:29:27.912Z,14.20
2018-04-16T01:32:01.812Z,14.20
2018-04-16T01:34:35.719Z,14.20
2018-04-16T01:37:08.876Z,14.10
2018-04-16T01:39:42.310Z,14.10
2018-04-16T01:42:28.615Z,14.10
2018-04-16T01:45:01.695Z,14.00
2018-04-16T01:47:34.852Z,14.00
2018-04-16T01:50:07.889Z,14.00
2018-04-16T01:52:40.933Z,13.90
2018-04-16T01:55:14.070Z,13.90
2018-04-16T01:57:47.125Z,13.90
2018-04-16T02:00:20.392Z,13.90
2018-04-16T02:02:53.604Z,13.90
2018-04-16T02:05:26.591Z,13.90
2018-04-16T02:07:59.733Z,13.80
2018-04-16T02:10:32.765Z,13.80
2018-04-16T02:13:05.967Z,13.80
2018-04-16T02:15:38.960Z,13.80
2018-04-16T02:18:12.095Z,13.90
2018-04-16T02:20:45.095Z,13.90
2018-04-16T02:23:18.094Z,13.90
2018-04-16T02:25:51.237Z,13.90
2018-04-16T02:28:24.367Z,13.90
2018-04-16T02:30:57.531Z,13.80
2018-04-16T02:33:30.709Z,13.80
2018-04-16T02:36:03.820Z,13.70
2018-04-16T02:38:36.826Z,13.70
2018-04-16T02:41:09.984Z,13.60
2018-04-16T02:43:54.133Z,13.60
2018-04-16T02:46:27.255Z,13.60
2018-04-16T02:49:07.259Z,13.50
2018-04-16T02:51:40.312Z,13.50
2018-04-16T02:54:13.437Z,13.40
2018-04-16T02:56:46.488Z,13.40
2018-04-16T02:59:33.910Z,13.30
2018-04-16T03:02:07.720Z,13.20
2018-04-16T03:04:40.739Z,13.10
2018-04-16T03:07:14.050Z,13.10
2018-04-16T03:09:47.174Z,13.10
2018-04-16T03:12:20.315Z,13.00
2018-04-16T03:14:53.438Z,13.00
2018-04-16T03:17:26.596Z,13.00
2018-04-16T03:19:59.646Z,12.90
2018-04-16T03:22:32.780Z,12.90
2018-04-16T03:25:05.793Z,12.90
2018-04-16T03:27:38.966Z,12.80
2018-04-16T03:30:12.119Z,12.80
2018-04-16T03:32:45.223Z,12.80
2018-04-16T03:35:18.265Z,12.80
2018-04-16T03:37:51.392Z,12.80
2018-04-16T03:40:24.529Z,12.70
2018-04-16T03:42:58.437Z,12.60
2018-04-16T03:45:32.339Z,12.50
2018-04-16T03:48:05.451Z,12.50
2018-04-16T03:50:39.392Z,12.40
2018-04-16T03:53:12.553Z,12.40
2018-04-16T03:55:59.839Z,12.40
2018-04-16T03:58:28.059Z,12.30
2018-04-16T04:00:56.305Z,12.30
2018-04-16T04:03:23.753Z,12.20
2018-04-16T04:05:51.331Z,12.20
2018-04-16T04:08:18.794Z,12.20
2018-04-16T04:10:46.231Z,12.20
2018-04-16T04:13:13.690Z,12.20
2018-04-16T04:15:41.133Z,12.20
2018-04-16T04:18:08.588Z,12.20
2018-04-16T04:20:36.280Z,12.20
2018-04-16T04:23:15.414Z,12.20
2018-04-16T04:25:54.755Z,12.10
2018-04-16T04:28:33.884Z,12.10
2018-04-16T04:31:01.331Z,12.00
2018-04-16T04:33:28.795Z,12.00
2018-04-16T04:35:57.103Z,11.90
2018-04-16T04:38:24.543Z,11.90
2018-04-16T04:40:51.988Z,11.80
2018-04-16T04:43:19.440Z,11.80
2018-04-16T04:45:46.876Z,11.70
2018-04-16T04:48:14.342Z,11.70
2018-04-16T04:50:41.792Z,11.70
2018-04-16T04:53:09.260Z,11.70
2018-04-16T04:55:36.716Z,11.70
2018-04-16T04:58:04.156Z,11.70
2018-04-16T05:00:31.616Z,11.70
2018-04-16T05:02:59.066Z,11.80
2018-04-16T05:05:26.511Z,11.80
2018-04-16T05:07:53.959Z,11.80
2018-04-16T05:10:21.405Z,11.70
2018-04-16T05:12:48.855Z,11.70
2018-04-16T05:15:16.295Z,11.70
2018-04-16T05:17:43.749Z,11.60
2018-04-16T05:20:11.192Z,11.60
2018-04-16T05:22:38.816Z,11.60
2018-04-16T05:25:06.277Z,11.50
2018-04-16T05:27:33.712Z,11.50
2018-04-16T05:30:01.163Z,11.50
2018-04-16T05:32:28.666Z,11.50
2018-04-16T05:34:56.273Z,11.50
2018-04-16T05:37:23.750Z,11.60
2018-04-16T05:39:51.195Z,11.60
2018-04-16T05:42:18.646Z,11.60
2018-04-16T05:44:46.108Z,11.60
2018-04-16T05:47:13.556Z,11.60
2018-04-16T05:49:41.012Z,11.70
2018-04-16T05:52:08.449Z,11.70
2018-04-16T05:54:35.907Z,11.80
2018-04-16T05:57:03.343Z,11.90
2018-04-16T05:59:30.782Z,12.00
2018-04-16T06:01:58.242Z,12.00
2018-04-16T06:04:26.034Z,12.10
2018-04-16T06:06:53.471Z,12.20
2018-04-16T06:09:20.947Z,12.30
2018-04-16T06:11:48.395Z,12.30
2018-04-16T06:14:16.061Z,12.40
2018-04-16T06:16:43.512Z,12.50
2018-04-16T06:19:11.011Z,12.60
2018-04-16T06:21:38.587Z,12.70
2018-04-16T06:24:06.019Z,12.70
2018-04-16T06:26:33.459Z,12.80
2018-04-16T06:29:00.914Z,12.90
2018-04-16T06:31:28.466Z,13.00
2018-04-16T06:33:58.244Z,13.10
2018-04-16T06:36:25.687Z,13.20
2018-04-16T06:38:53.130Z,13.20
2018-04-16T06:41:20.587Z,13.30
2018-04-16T06:43:48.029Z,13.40
2018-04-16T06:46:16.247Z,13.60
2018-04-16T06:48:43.693Z,13.60
2018-04-16T06:51:11.140Z,13.70
2018-04-16T06:53:38.587Z,13.90
2018-04-16T06:56:06.319Z,14.00
2018-04-16T06:58:33.795Z,14.10
2018-04-16T07:01:01.296Z,14.20
2018-04-16T07:03:28.702Z,14.30
2018-04-16T07:05:56.252Z,14.40
2018-04-16T07:08:23.689Z,14.40
2018-04-16T07:10:51.149Z,14.50
2018-04-16T07:13:18.609Z,14.60
2018-04-16T07:15:46.199Z,14.70
2018-04-16T07:18:13.630Z,14.80
2018-04-16T07:20:41.077Z,14.90
2018-04-16T07:23:08.536Z,15.00
2018-04-16T07:25:36.004Z,15.10
2018-04-16T07:28:03.436Z,15.20
2018-04-16T07:30:31.672Z,15.40
2018-04-16T07:32:59.124Z,15.30
2018-04-16T07:35:26.564Z,15.40
2018-04-16T07:37:54.015Z,15.50
2018-04-16T07:40:21.464Z,15.60
2018-04-16T07:42:48.921Z,15.80
2018-04-16T07:45:16.380Z,15.90
2018-04-16T07:47:43.822Z,16.00
2018-04-16T07:50:12.038Z,16.20
2018-04-16T07:52:49.172Z,16.30
2018-04-16T07:55:16.624Z,16.20
2018-04-16T07:57:44.072Z,16.40
2018-04-16T08:00:11.520Z,16.40
2018-04-16T08:02:38.978Z,16.60
2018-04-16T08:05:06.814Z,16.70
2018-04-16T08:07:34.244Z,16.80
2018-04-16T08:10:01.740Z,17.00
2018-04-16T08:12:29.919Z,17.20
2018-04-16T08:14:57.362Z,17.10
2018-04-16T08:17:24.794Z,17.30
2018-04-16T08:19:52.253Z,17.40
2018-04-16T08:22:19.740Z,17.50
2018-04-16T08:24:47.895Z,18.00
2018-04-16T08:27:15.356Z,17.90
2018-04-16T08:29:43.735Z,18.40
2018-04-16T08:32:11.344Z,18.80
2018-04-16T08:34:38.846Z,19.30
2018-04-16T08:37:06.278Z,19.90
2018-04-16T08:39:35.235Z,21.20
2018-04-16T08:42:02.667Z,21.10
2018-04-16T08:44:30.263Z,22.00
2018-04-16T08:46:57.819Z,22.60
2018-04-16T08:49:25.269Z,23.10
2018-04-16T08:51:53.009Z,23.90
2018-04-16T08:54:20.655Z,24.40
2018-04-16T08:56:49.933Z,25.70
2018-04-16T08:59:17.477Z,25.70
2018-04-16T09:01:44.939Z,26.50
2018-04-16T09:04:12.437Z,26.80
2018-04-16T09:06:39.886Z,27.20
2018-04-16T09:09:07.439Z,27.40
2018-04-16T09:11:34.926Z,27.80
2018-04-16T09:14:02.412Z,27.70
2018-04-16T09:16:29.815Z,27.40
2018-04-16T09:19:00.738Z,27.50
2018-04-16T09:21:28.209Z,27.50
2018-04-16T09:23:55.644Z,27.20
2018-04-16T09:26:23.563Z,27.40
2018-04-16T09:28:51.055Z,27.10
2018-04-16T09:31:18.559Z,27.30
2018-04-16T09:33:45.960Z,28.00
2018-04-16T09:36:13.400Z,28.10
2018-04-16T09:38:40.839Z,28.00
2018-04-16T09:41:08.291Z,28.30
2018-04-16T09:43:36.492Z,29.10
2018-04-16T09:46:03.953Z,29.10
2018-04-16T09:48:31.432Z,28.90
2018-04-16T09:50:58.875Z,28.90
2018-04-16T09:53:26.320Z,29.10
2018-04-16T09:55:53.810Z,29.70
2018-04-16T09:58:21.417Z,29.80
2018-04-16T10:00:50.777Z,29.80
2018-04-16T10:03:18.215Z,30.40
2018-04-16T10:05:45.669Z,30.80
2018-04-16T10:08:13.124Z,31.10
2018-04-16T10:10:40.576Z,31.50
2018-04-16T10:13:08.012Z,32.00
2018-04-16T10:15:35.483Z,32.00
2018-04-16T10:18:02.925Z,32.00
2018-04-16T10:20:30.563Z,32.50
2018-04-16T10:22:58.556Z,32.70
2018-04-16T10:25:25.983Z,32.00
2018-04-16T10:27:53.424Z,31.60
2018-04-16T10:30:20.876Z,31.80
2018-04-16T10:32:48.331Z,32.50
2018-04-16T10:35:15.770Z,33.10
2018-04-16T10:37:43.221Z,33.20
2018-04-16T10:40:10.875Z,32.20
2018-04-16T10:42:38.518Z,31.30
2018-04-16T10:45:05.964Z,30.80
2018-04-16T10:47:34.196Z,29.80
2018-04-16T10:50:01.672Z,29.80
2018-04-16T10:52:29.067Z,29.40
2018-04-16T10:54:57.280Z,28.70
2018-04-16T10:57:24.728Z,28.60
2018-04-16T10:59:52.185Z,28.40
2018-04-16T11:02:20.377Z,28.60
2018-04-16T11:04:47.848Z,28.60
2018-04-16T11:07:15.303Z,29.00
2018-04-16T11:09:42.739Z,29.30
2018-04-16T11:12:10.375Z,29.50
2018-04-16T11:14:37.818Z,29.80
2018-04-16T11:17:05.258Z,30.00
2018-04-16T11:19:32.709Z,29.90
2018-04-16T11:22:00.152Z,29.80
2018-04-16T11:24:27.602Z,29.80
2018-04-16T11:26:55.199Z,29.60
2018-04-16T11:29:22.644Z,29.60
2018-04-16T11:31:50.443Z,29.60
2018-04-16T11:34:18.008Z,30.10
2018-04-16T11:36:47.176Z,29.80
2018-04-16T11:39:15.368Z,30.20
2018-04-16T11:41:43.096Z,30.20
2018-04-16T11:44:10.555Z,31.10
2018-04-16T11:46:37.998Z,31.00
2018-04-16T11:49:05.442Z,30.00
2018-04-16T11:51:32.897Z,28.90
2018-04-16T11:54:01.392Z,27.10
2018-04-16T11:56:28.842Z,27.10
2018-04-16T11:58:56.320Z,26.10
2018-04-16T12:01:23.823Z,25.30
2018-04-16T12:03:52.177Z,24.70
2018-04-16T12:06:19.920Z,24.30
2018-04-16T12:08:47.368Z,23.90
2018-04-16T12:11:14.863Z,23.70
2018-04-16T12:13:42.355Z,23.50
2018-04-16T12:16:09.752Z,23.30
2018-04-16T12:18:37.318Z,23.30
2018-04-16T12:21:04.744Z,23.30
2018-04-16T12:23:32.196Z,23.20
2018-04-16T12:25:59.821Z,23.20
2018-04-16T12:28:27.571Z,23.20
2018-04-16T12:31:00.992Z,23.60
2018-04-16T12:33:34.336Z,24.20
2018-04-16T12:36:08.131Z,24.70
2018-04-16T12:38:41.387Z,24.60
2018-04-16T12:41:09.578Z,25.10
2018-04-16T12:43:37.034Z,25.00
2018-04-16T12:46:04.473Z,25.00
2018-04-16T12:48:31.927Z,24.80
2018-04-16T12:51:10.848Z,24.70
2018-04-16T12:53:38.485Z,24.40
2018-04-16T12:56:05.920Z,24.10
2018-04-16T12:58:39.118Z,23.80
2018-04-16T13:01:06.556Z,23.60
2018-04-16T13:03:39.926Z,23.40
2018-04-16T13:06:13.283Z,23.30
2018-04-16T13:08:40.733Z,23.20
2018-04-16T13:11:13.892Z,23.00
2018-04-16T13:13:47.228Z,22.90
2018-04-16T13:16:14.670Z,22.70
2018-04-16T13:18:42.108Z,22.60
2018-04-16T13:21:09.557Z,22.60
2018-04-16T13:23:36.988Z,22.80
2018-04-16T13:26:17.924Z,23.10
2018-04-16T13:28:45.513Z,23.80
2018-04-16T13:31:24.602Z,25.70
2018-04-16T13:33:53.950Z,27.40
2018-04-16T13:36:27.053Z,29.10
2018-04-16T13:38:54.431Z,30.40
2018-04-16T13:41:21.883Z,31.00
2018-04-16T13:44:00.852Z,31.80
2018-04-16T13:46:29.376Z,32.40
2018-04-16T13:49:01.179Z,32.30
2018-04-16T13:51:34.192Z,32.20
2018-04-16T13:54:04.204Z,32.20
2018-04-16T13:56:37.404Z,32.10
2018-04-16T13:59:06.360Z,32.60
2018-04-16T14:01:33.821Z,32.50
2018-04-16T14:04:01.980Z,33.00
2018-04-16T14:06:33.516Z,32.90
2018-04-16T14:09:00.951Z,32.70
2018-04-16T14:11:28.577Z,32.50
2018-04-16T14:14:01.968Z,32.30
2018-04-16T14:16:35.130Z,32.30
2018-04-16T14:19:03.340Z,31.90
2018-04-16T14:21:37.094Z,31.90
2018-04-16T14:24:04.504Z,31.70
2018-04-16T14:26:31.956Z,31.80
2018-04-16T14:28:59.416Z,31.60
2018-04-16T14:31:26.881Z,31.40
2018-04-16T14:33:55.581Z,32.10
2018-04-16T14:36:23.009Z,32.10
2018-04-16T14:38:51.448Z,31.70
2018-04-16T14:41:18.891Z,31.60
2018-04-16T14:43:46.368Z,31.40
2018-04-16T14:46:13.831Z,31.30
2018-04-16T14:48:41.273Z,31.10
2018-04-16T14:51:08.953Z,30.90
2018-04-16T14:53:53.970Z,30.70
2018-04-16T14:56:27.150Z,30.10
2018-04-16T14:58:54.712Z,29.20
2018-04-16T15:01:27.861Z,28.60
2018-04-16T15:04:01.065Z,28.30
2018-04-16T15:06:28.518Z,27.90
2018-04-16T15:08:55.936Z,27.40
2018-04-16T15:11:23.385Z,27.10
2018-04-16T15:13:56.863Z,27.20
2018-04-16T15:16:24.311Z,27.50
2018-04-16T15:18:54.347Z,27.50
2018-04-16T15:21:21.811Z,27.30
2018-04-16T15:23:49.243Z,26.80
2018-04-16T15:26:17.569Z,26.60
2018-04-16T15:28:45.127Z,27.00
2018-04-16T15:31:12.614Z,27.40
2018-04-16T15:33:40.444Z,27.60
2018-04-16T15:36:07.899Z,27.60
2018-04-16T15:38:35.364Z,27.50
2018-04-16T15:41:02.878Z,26.80
2018-04-16T15:43:31.945Z,26.60
2018-04-16T15:45:59.383Z,26.70
2018-04-16T15:48:26.872Z,26.80
2018-04-16T15:50:54.288Z,26.70
2018-04-16T15:53:21.729Z,26.60
2018-04-16T15:55:49.180Z,26.60
2018-04-16T15:58:16.682Z,26.40
2018-04-16T16:00:44.128Z,26.20
2018-04-16T16:03:12.335Z,25.80
2018-04-16T16:05:39.785Z,25.80
2018-04-16T16:08:07.236Z,25.60
2018-04-16T16:10:34.687Z,25.10
2018-04-16T16:13:02.136Z,24.60
2018-04-16T16:15:29.576Z,24.20
2018-04-16T16:17:57.025Z,23.80
2018-04-16T16:20:24.484Z,23.60
2018-04-16T16:22:51.919Z,23.30
2018-04-16T16:25:19.621Z,23.10
2018-04-16T16:27:47.068Z,22.90
2018-04-16T16:30:14.513Z,22.80
2018-04-16T16:32:41.999Z,22.70
2018-04-16T16:35:09.428Z,22.70
2018-04-16T16:37:36.869Z,22.60
2018-04-16T16:40:04.312Z,22.60
2018-04-16T16:42:31.812Z,22.50
2018-04-16T16:44:59.269Z,22.50
2018-04-16T16:47:26.771Z,22.40
2018-04-16T16:49:54.200Z,22.30
2018-04-16T16:52:21.704Z,22.20
2018-04-16T16:54:49.170Z,22.20
2018-04-16T16:57:16.611Z,22.10
2018-04-16T16:59:44.053Z,22.10
2018-04-16T17:02:11.526Z,21.90
2018-04-16T17:04:38.981Z,21.80
2018-04-16T17:07:06.425Z,21.80
2018-04-16T17:09:33.885Z,21.70
2018-04-16T17:12:01.331Z,21.60
2018-04-16T17:14:29.538Z,21.40
2018-04-16T17:16:56.989Z,21.40
2018-04-16T17:19:24.427Z,21.40
2018-04-16T17:21:52.655Z,21.20
2018-04-16T17:24:20.092Z,21.20
2018-04-16T17:26:47.532Z,21.10
2018-04-16T17:29:14.995Z,21.00
2018-04-16T17:31:42.633Z,20.80
2018-04-16T17:34:10.066Z,20.70
2018-04-16T17:36:37.508Z,20.50
2018-04-16T17:39:07.680Z,20.40
2018-04-16T17:41:35.137Z,20.30
2018-04-16T17:44:02.575Z,20.10
2018-04-16T17:46:30.331Z,19.90
2018-04-16T17:48:59.459Z,19.80
2018-04-16T17:51:30.592Z,19.70
2018-04-16T17:53:58.255Z,19.60
2018-04-16T17:56:25.725Z,19.50
2018-04-16T17:58:53.180Z,19.40
2018-04-16T18:01:20.630Z,19.30
2018-04-16T18:03:48.088Z,19.10
2018-04-16T18:06:15.531Z,19.00
2018-04-16T18:08:43.223Z,19.00
2018-04-16T18:11:10.668Z,18.90
2018-04-16T18:13:38.170Z,18.80
2018-04-16T18:16:05.625Z,18.70
2018-04-16T18:18:33.211Z,18.60
2018-04-16T18:21:00.808Z,18.50
2018-04-16T18:23:28.263Z,18.50
2018-04-16T18:25:55.697Z,18.40
2018-04-16T18:28:23.159Z,18.40
2018-04-16T18:30:51.092Z,18.30
2018-04-16T18:33:18.554Z,18.20
2018-04-16T18:35:46.127Z,18.20
2018-04-16T18:38:13.622Z,18.20
2018-04-16T18:40:41.074Z,18.10
2018-04-16T18:43:08.515Z,18.10
2018-04-16T18:45:35.964Z,18.00
2018-04-16T18:48:03.467Z,18.00
2018-04-16T18:50:30.857Z,17.90
2018-04-16T18:52:58.321Z,17.90
2018-04-16T18:55:25.832Z,17.80
2018-04-16T18:57:53.292Z,17.80
2018-04-16T19:00:20.775Z,17.70
2018-04-16T19:02:48.275Z,17.70
2018-04-16T19:05:15.736Z,17.70
2018-04-16T19:07:44.290Z,17.50
2018-04-16T19:10:11.697Z,17.50
2018-04-16T19:12:39.154Z,17.50
2018-04-16T19:15:06.941Z,17.50
2018-04-16T19:17:50.179Z,17.40
2018-04-16T19:20:23.171Z,17.40
2018-04-16T19:22:50.856Z,17.30
2018-04-16T19:25:18.704Z,17.20
2018-04-16T19:27:51.868Z,17.20
2018-04-16T19:30:19.319Z,17.10
2018-04-16T19:32:52.363Z,17.10
2018-04-16T19:35:20.134Z,17.00
2018-04-16T19:37:47.562Z,16.90
2018-04-16T19:40:15.012Z,16.80
2018-04-16T19:42:42.460Z,16.70
2018-04-16T19:45:09.912Z,16.60
2018-04-16T19:47:37.742Z,16.60
2018-04-16T19:50:06.108Z,16.60
2018-04-16T19:52:33.560Z,16.50
2018-04-16T19:55:01.017Z,16.40
2018-04-16T19:57:34.237Z,16.40
2018-04-16T20:00:01.934Z,16.30
2018-04-16T20:02:34.977Z,16.30
2018-04-16T20:05:02.418Z,16.20
2018-04-16T20:07:30.057Z,16.20
2018-04-16T20:09:57.517Z,16.20
2018-04-16T20:12:24.965Z,16.20
2018-04-16T20:14:52.415Z,16.20
2018-04-16T20:17:19.856Z,16.10
2018-04-16T20:19:47.311Z,16.10
2018-04-16T20:22:14.762Z,16.10
2018-04-16T20:24:42.234Z,16.00
2018-04-16T20:27:10.412Z,15.90
2018-04-16T20:29:37.877Z,15.80
2018-04-16T20:32:05.326Z,15.80
2018-04-16T20:34:32.780Z,15.70
2018-04-16T20:37:00.231Z,15.70
2018-04-16T20:39:27.719Z,15.60
2018-04-16T20:41:55.147Z,15.60
2018-04-16T20:44:22.590Z,15.60
2018-04-16T20:46:50.327Z,15.60
2018-04-16T20:49:17.791Z,15.60
2018-04-16T20:51:45.252Z,15.60
2018-04-16T20:54:12.700Z,15.60
2018-04-16T20:56:40.154Z,15.50
2018-04-16T20:59:07.741Z,15.50
2018-04-16T21:01:35.187Z,15.50
2018-04-16T21:04:02.657Z,15.40
2018-04-16T21:06:30.324Z,15.40
2018-04-16T21:08:57.793Z,15.30
2018-04-16T21:11:25.260Z,15.30
2018-04-16T21:13:52.704Z,15.30
2018-04-16T21:16:20.161Z,15.20
2018-04-16T21:18:47.604Z,15.20
2018-04-16T21:21:15.047Z,15.20
2018-04-16T21:23:43.263Z,15.10
2018-04-16T21:26:10.703Z,15.00
2018-04-16T21:28:38.193Z,15.00
2018-04-16T21:31:05.639Z,14.90
2018-04-16T21:33:33.101Z,14.90
2018-04-16T21:36:00.560Z,14.80
2018-04-16T21:38:28.000Z,14.70
2018-04-16T21:40:55.528Z,14.70
2018-04-16T21:43:22.912Z,14.70
2018-04-16T21:45:51.123Z,14.60
2018-04-16T21:48:20.773Z,14.50
2018-04-16T21:50:48.457Z,14.50
2018-04-16T21:53:15.980Z,14.40
2018-04-16T21:55:43.415Z,14.40
2018-04-16T21:58:10.855Z,14.30
2018-04-16T22:00:39.920Z,14.30
2018-04-16T22:03:07.392Z,14.20
2018-04-16T22:05:34.841Z,14.20
2018-04-16T22:08:02.320Z,14.10
2018-04-16T22:10:29.820Z,14.10
2018-04-16T22:12:57.212Z,14.00
2018-04-16T22:15:24.657Z,14.00
2018-04-16T22:17:52.117Z,13.90
2018-04-16T22:20:19.569Z,13.90
2018-04-16T22:22:47.017Z,13.90
2018-04-16T22:25:15.234Z,13.80
2018-04-16T22:27:42.678Z,13.70
2018-04-16T22:30:10.140Z,13.70
2018-04-16T22:32:37.600Z,13.70
2018-04-16T22:35:05.040Z,13.60
2018-04-16T22:37:32.491Z,13.60
2018-04-16T22:40:00.719Z,13.50
2018-04-16T22:42:28.190Z,13.40
2018-04-16T22:44:55.645Z,13.50
2018-04-16T22:47:23.114Z,13.50
2018-04-16T22:49:50.565Z,13.50
2018-04-16T22:52:18.012Z,13.50
2018-04-16T22:54:45.457Z,13.50
2018-04-16T22:57:12.900Z,13.40
2018-04-16T22:59:40.348Z,13.40
2018-04-16T23:02:07.818Z,13.40
2018-04-16T23:04:36.018Z,13.30
2018-04-16T23:07:03.509Z,13.20
2018-04-16T23:09:30.955Z,13.30
2018-04-16T23:11:58.417Z,13.30
2018-04-16T23:14:25.858Z,13.20
2018-04-16T23:16:53.297Z,13.20
2018-04-16T23:19:21.521Z,13.10
2018-04-16T23:21:48.980Z,13.00
2018-04-16T23:24:16.424Z,13.00
2018-04-16T23:26:43.879Z,12.90
2018-04-16T23:29:11.328Z,12.90
2018-04-16T23:31:39.574Z,12.80
2018-04-16T23:34:07.022Z,12.70
2018-04-16T23:36:34.474Z,12.80
2018-04-16T23:39:01.936Z,12.70
2018-04-16T23:41:29.544Z,12.70
2018-04-16T23:43:57.009Z,12.60
2018-04-16T23:46:24.473Z,12.60
2018-04-16T23:48:52.212Z,12.50
2018-04-16T23:51:19.729Z,12.50
2018-04-16T23:53:47.170Z,12.40
2018-04-16T23:56:14.619Z,12.40
2018-04-16T23:58:42.069Z,12.30
